Time;durP1;ratioP1;P1;durP2;ratioP2;P2;SDS_P1;SDS_P2;PMS_P1;PMS_P2;Temp;Humidity;BMP_temperature;BMP_pressure;BME280_temperature;BME280_humidity;BME280_pressure;Samples;Min_cycle;Max_cycle;Signal;HPM_P1;HPM_P2
2022/09/14 00:02:28;;;;;;;8.23;2.87;;;22.00;91.10;;;;;;5067707;28;20493;-69
2022/09/14 00:04:55;;;;;;;6.00;2.77;;;22.00;91.00;;;;;;5066894;28;20445;-69
2022/09/14 00:07:23;;;;;;;3.07;2.60;;;22.00;91.00;;;;;;5068025;28;20532;-69
2022/09/14 00:09:51;;;;;;;4.97;3.10;;;21.90;90.90;;;;;;5069469;28;20457;-69
2022/09/14 00:12:18;;;;;;;5.20;2.80;;;21.90;90.80;;;;;;5069436;28;20503;-69
2022/09/14 00:14:45;;;;;;;4.80;3.00;;;21.90;90.90;;;;;;5069181;28;20485;-69
2022/09/14 00:17:12;;;;;;;3.43;2.60;;;21.90;90.90;;;;;;5068676;28;20960;-69
2022/09/14 00:19:39;;;;;;;5.93;3.07;;;21.80;90.90;;;;;;5068548;28;20483;-69
2022/09/14 00:22:06;;;;;;;4.23;2.57;;;21.80;90.90;;;;;;5067837;28;20523;-69
2022/09/14 00:24:34;;;;;;;7.17;3.17;;;21.80;90.90;;;;;;5068511;28;20450;-69
2022/09/14 00:27:02;;;;;;;10.13;2.80;;;21.80;90.90;;;;;;5068959;28;20450;-69
2022/09/14 00:29:30;;;;;;;4.37;2.77;;;21.70;90.90;;;;;;5068888;28;20450;-69
2022/09/14 00:31:57;;;;;;;5.20;2.80;;;21.70;91.00;;;;;;5069149;28;20442;-69
2022/09/14 00:34:24;;;;;;;5.30;2.60;;;21.70;91.00;;;;;;5069804;28;20496;-69
2022/09/14 00:36:52;;;;;;;4.50;2.63;;;21.60;91.00;;;;;;5073349;28;20449;-69
2022/09/14 00:39:22;;;;;;;7.27;2.90;;;21.60;91.00;;;;;;5071278;28;20450;-69
2022/09/14 00:41:51;;;;;;;4.87;2.47;;;21.60;91.00;;;;;;5069994;28;20481;-69
2022/09/14 00:45:07;;;;;;;6.00;2.87;;;21.60;91.00;;;;;;5069200;28;20476;-69
2022/09/14 00:47:35;;;;;;;5.17;3.33;;;21.60;91.10;;;;;;5069090;28;20438;-68
2022/09/14 00:50:04;;;;;;;3.27;2.30;;;21.60;91.30;;;;;;5067676;28;20441;-68
2022/09/14 00:52:34;;;;;;;3.73;2.90;;;21.50;91.30;;;;;;5068123;28;20480;-69
2022/09/14 00:55:04;;;;;;;4.60;2.50;;;21.50;91.30;;;;;;5069354;28;20445;-69
2022/09/14 00:57:37;;;;;;;3.43;2.50;;;21.50;91.30;;;;;;5068699;28;20477;-70
2022/09/14 01:00:08;;;;;;;3.07;2.60;;;21.50;91.50;;;;;;5068269;28;20438;-68
2022/09/14 01:02:36;;;;;;;3.10;2.70;;;21.50;91.50;;;;;;5068049;28;20485;-68
2022/09/14 01:05:04;;;;;;;6.37;2.63;;;21.50;91.30;;;;;;5068021;28;20449;-69
2022/09/14 01:07:44;;;;;;;7.13;3.00;;;21.50;91.30;;;;;;5069137;28;20795;-69
2022/09/14 01:10:26;;;;;;;4.30;1.90;;;21.50;91.20;;;;;;5067691;28;20437;-69
2022/09/14 01:13:06;;;;;;;2.87;2.30;;;21.50;91.10;;;;;;5067401;28;20488;-69
2022/09/14 01:15:42;;;;;;;3.73;2.40;;;21.40;91.20;;;;;;5067254;28;20441;-68
2022/09/14 01:18:16;;;;;;;6.10;2.50;;;21.40;91.30;;;;;;5065634;28;20860;-69
2022/09/14 01:20:47;;;;;;;5.80;2.00;;;21.40;91.40;;;;;;5067737;28;20430;-69
2022/09/14 01:23:22;;;;;;;3.10;2.80;;;21.40;91.50;;;;;;5067691;28;20492;-69
2022/09/14 01:26:13;;;;;;;3.70;1.70;;;21.40;91.40;;;;;;5067995;28;20430;-69
2022/09/14 01:28:48;;;;;;;4.77;2.63;;;21.30;91.60;;;;;;5067319;28;20932;-68
2022/09/14 01:31:19;;;;;;;3.90;2.40;;;21.30;91.90;;;;;;5066381;28;20441;-68
2022/09/14 01:33:53;;;;;;;4.27;2.30;;;21.30;91.80;;;;;;5067404;28;20466;-68
2022/09/14 01:36:21;;;;;;;3.57;2.00;;;21.30;91.70;;;;;;5067559;28;20438;-68
2022/09/14 01:38:51;;;;;;;4.10;2.57;;;21.20;91.80;;;;;;5065545;28;20476;-68
2022/09/14 01:41:22;;;;;;;2.63;1.57;;;21.30;91.70;;;;;;5067677;28;20438;-68
2022/09/14 01:43:53;;;;;;;3.17;1.93;;;21.20;91.50;;;;;;5068184;28;20489;-68
2022/09/14 01:46:25;;;;;;;5.90;2.40;;;21.30;91.50;;;;;;5067368;28;20441;-68
2022/09/14 01:48:56;;;;;;;4.63;2.10;;;21.20;91.50;;;;;;5066671;28;20524;-67
2022/09/14 01:51:26;;;;;;;3.93;1.67;;;21.30;91.40;;;;;;5065259;28;20430;-67
2022/09/14 01:53:58;;;;;;;7.40;2.47;;;21.20;91.30;;;;;;5065517;28;20529;-67
2022/09/14 01:56:30;;;;;;;5.47;2.70;;;21.20;91.20;;;;;;5066519;28;20442;-67
2022/09/14 01:59:07;;;;;;;5.00;2.37;;;21.10;91.20;;;;;;5064069;28;20444;-67
2022/09/14 02:01:37;;;;;;;3.93;1.67;;;21.10;91.40;;;;;;5064508;28;20441;-67
2022/09/14 02:04:08;;;;;;;4.67;2.20;;;21.10;91.40;;;;;;5064459;28;20462;-67
2022/09/14 02:06:39;;;;;;;4.77;2.67;;;21.10;91.50;;;;;;5065189;28;20434;-67
2022/09/14 02:09:09;;;;;;;3.50;2.00;;;21.10;91.60;;;;;;5065455;28;20438;-67
2022/09/14 02:11:36;;;;;;;8.47;2.30;;;21.00;91.70;;;;;;5064973;28;20445;-67
2022/09/14 02:14:07;;;;;;;7.90;2.50;;;21.00;91.90;;;;;;5064477;28;20999;-67
2022/09/14 02:16:33;;;;;;;4.67;2.60;;;21.00;92.00;;;;;;5067125;28;20890;-68
2022/09/14 02:19:00;;;;;;;2.70;2.23;;;21.00;92.10;;;;;;5067133;28;20465;-67
2022/09/14 02:21:29;;;;;;;4.87;2.10;;;21.00;92.20;;;;;;5064904;28;20438;-67
2022/09/14 02:23:56;;;;;;;6.90;3.27;;;21.00;92.20;;;;;;5065151;28;20493;-67
2022/09/14 02:26:25;;;;;;;6.90;2.57;;;21.00;92.10;;;;;;5065931;28;20456;-67
2022/09/14 02:28:54;;;;;;;3.77;2.17;;;21.00;92.10;;;;;;5063876;28;20467;-67
2022/09/14 02:31:30;;;;;;;4.70;2.10;;;20.90;92.20;;;;;;5066475;28;20449;-67
2022/09/14 02:34:03;;;;;;;2.30;2.10;;;20.90;92.20;;;;;;5065905;28;20465;-67
2022/09/14 02:36:40;;;;;;;2.93;1.70;;;20.90;92.30;;;;;;5067646;28;20438;-68
2022/09/14 02:39:18;;;;;;;4.80;2.40;;;20.90;92.30;;;;;;5066443;28;20451;-68
2022/09/14 02:41:50;;;;;;;3.90;2.13;;;20.90;92.30;;;;;;5066633;28;20438;-68
2022/09/14 02:44:25;;;;;;;3.73;2.60;;;20.80;92.20;;;;;;5061640;28;20457;-65
2022/09/14 02:46:58;;;;;;;6.15;2.50;;;20.80;92.20;;;;;;5060071;28;20442;-67
2022/09/14 02:49:34;;;;;;;4.70;2.70;;;20.80;92.50;;;;;;5062830;28;20196;-67
2022/09/14 02:52:07;;;;;;;7.60;2.57;;;20.80;92.60;;;;;;5061399;28;20457;-65
2022/09/14 02:54:39;;;;;;;4.00;2.60;;;20.80;92.60;;;;;;5063038;28;20434;-66
2022/09/14 02:57:06;;;;;;;4.53;2.60;;;20.70;92.60;;;;;;5061771;28;20905;-67
2022/09/14 02:59:33;;;;;;;4.93;2.50;;;20.70;92.60;;;;;;5065292;28;20445;-67
2022/09/14 03:02:01;;;;;;;3.50;2.23;;;20.70;92.50;;;;;;5065237;28;20453;-68
2022/09/14 03:04:28;;;;;;;5.83;3.13;;;20.70;92.50;;;;;;5064587;28;20457;-68
2022/09/14 03:06:55;;;;;;;6.60;2.83;;;20.70;92.60;;;;;;5064453;28;20438;-67
2022/09/14 03:09:22;;;;;;;2.80;2.23;;;20.60;92.50;;;;;;5067838;28;20445;-68
2022/09/14 03:11:49;;;;;;;4.67;2.50;;;20.60;92.60;;;;;;5068951;28;20529;-68
2022/09/14 03:14:15;;;;;;;4.77;2.70;;;20.60;92.70;;;;;;5067402;28;20490;-69
2022/09/14 03:16:42;;;;;;;4.83;2.43;;;20.60;92.70;;;;;;5077025;28;20422;-68
2022/09/14 03:19:11;;;;;;;3.17;2.03;;;20.50;92.80;;;;;;5074714;28;20456;-68
2022/09/14 03:21:39;;;;;;;3.40;2.50;;;20.50;92.80;;;;;;5067944;28;20454;-68
2022/09/14 03:24:06;;;;;;;4.93;3.53;;;20.50;92.90;;;;;;5066767;28;20481;-68
2022/09/14 03:26:35;;;;;;;6.17;2.93;;;20.50;92.90;;;;;;5067942;28;20446;-68
2022/09/14 03:29:02;;;;;;;6.37;3.30;;;20.50;93.00;;;;;;5072043;28;20453;-68
2022/09/14 03:31:29;;;;;;;5.47;3.27;;;20.50;93.10;;;;;;5071305;28;20440;-68
2022/09/14 03:33:57;;;;;;;5.63;3.13;;;20.50;93.10;;;;;;5071164;28;20470;-67
2022/09/14 03:36:28;;;;;;;5.23;2.97;;;20.50;93.20;;;;;;5070158;28;20450;-67
2022/09/14 03:38:57;;;;;;;8.93;3.20;;;20.50;93.20;;;;;;5070741;28;20430;-67
2022/09/14 03:41:25;;;;;;;4.80;3.10;;;20.50;93.20;;;;;;5070837;28;20449;-68
2022/09/14 03:43:52;;;;;;;9.57;3.93;;;20.40;93.10;;;;;;5070491;28;20489;-68
2022/09/14 03:46:22;;;;;;;4.60;3.03;;;20.40;93.10;;;;;;5070821;28;20453;-68
2022/09/14 03:48:49;;;;;;;5.53;3.30;;;20.40;93.10;;;;;;5070144;28;20442;-69
2022/09/14 03:51:16;;;;;;;3.40;3.00;;;20.40;93.10;;;;;;5070555;28;20477;-68
2022/09/14 03:53:45;;;;;;;5.90;3.73;;;20.40;93.10;;;;;;5069946;28;20488;-68
2022/09/14 03:56:13;;;;;;;4.90;3.03;;;20.40;93.20;;;;;;5070576;28;20449;-69
2022/09/14 03:58:40;;;;;;;7.20;3.80;;;20.30;93.20;;;;;;5071212;28;20450;-69
2022/09/14 04:01:09;;;;;;;5.93;4.23;;;20.30;93.30;;;;;;5069382;28;20450;-68
2022/09/14 04:03:36;;;;;;;4.90;4.00;;;20.30;93.30;;;;;;5069921;28;20477;-68
2022/09/14 04:06:04;;;;;;;4.30;3.37;;;20.30;93.40;;;;;;5070057;28;20461;-68
2022/09/14 04:08:31;;;;;;;5.00;4.40;;;20.30;93.50;;;;;;5070094;28;20460;-68
2022/09/14 04:10:59;;;;;;;4.83;4.10;;;20.30;93.50;;;;;;5069140;28;20445;-68
2022/09/14 04:13:26;;;;;;;8.60;4.20;;;20.20;93.50;;;;;;5068815;28;20486;-68
2022/09/14 04:15:57;;;;;;;5.53;5.03;;;20.20;93.50;;;;;;5067940;28;20457;-67
2022/09/14 04:18:24;;;;;;;5.87;4.13;;;20.20;93.60;;;;;;5068773;28;20457;-68
2022/09/14 04:20:55;;;;;;;5.50;5.00;;;20.20;93.70;;;;;;5067641;28;20441;-68
2022/09/14 04:23:22;;;;;;;10.13;5.63;;;20.20;93.80;;;;;;5066360;28;20477;-68
2022/09/14 04:25:49;;;;;;;8.07;5.80;;;20.20;93.80;;;;;;5064719;28;20929;-68
2022/09/14 04:28:17;;;;;;;7.60;6.03;;;20.10;93.80;;;;;;5063487;28;20442;-67
2022/09/14 04:30:44;;;;;;;6.93;6.20;;;20.10;93.80;;;;;;5064732;28;20450;-67
2022/09/14 04:33:10;;;;;;;7.50;6.73;;;20.00;93.80;;;;;;5063441;28;20490;-68
2022/09/14 04:35:37;;;;;;;7.67;6.97;;;20.00;93.90;;;;;;5063221;28;20456;-68
2022/09/14 04:38:04;;;;;;;6.90;6.23;;;20.00;94.00;;;;;;5064618;28;20446;-67
2022/09/14 04:40:31;;;;;;;6.83;6.27;;;20.00;94.00;;;;;;5063543;28;20445;-68
2022/09/14 04:42:57;;;;;;;8.40;7.60;;;20.00;94.00;;;;;;5064296;28;20474;-68
2022/09/14 04:45:25;;;;;;;9.93;7.40;;;20.00;94.00;;;;;;5063691;28;20944;-68
2022/09/14 04:47:53;;;;;;;9.53;8.20;;;19.90;93.80;;;;;;5064134;28;20442;-67
2022/09/14 04:50:20;;;;;;;9.33;7.53;;;19.90;93.80;;;;;;5063699;28;20457;-68
2022/09/14 04:52:46;;;;;;;7.77;6.90;;;19.90;93.80;;;;;;5063725;28;20473;-68
2022/09/14 04:55:13;;;;;;;6.40;5.80;;;19.80;93.80;;;;;;5064050;28;20434;-67
2022/09/14 04:57:40;;;;;;;9.00;6.30;;;19.80;93.80;;;;;;5064055;28;20449;-67
2022/09/14 05:00:08;;;;;;;8.77;6.73;;;19.80;93.80;;;;;;5064035;28;20831;-67
2022/09/14 05:02:40;;;;;;;8.70;6.70;;;19.80;93.80;;;;;;5063379;28;20534;-67
2022/09/14 05:05:08;;;;;;;6.20;5.60;;;19.80;93.80;;;;;;5064446;28;20434;-68
2022/09/14 05:07:34;;;;;;;7.23;4.50;;;19.80;93.90;;;;;;5064058;28;20453;-68
2022/09/14 05:10:01;;;;;;;8.53;5.00;;;19.70;93.90;;;;;;5065679;28;20450;-67
2022/09/14 05:12:29;;;;;;;8.53;4.50;;;19.70;93.90;;;;;;5065151;28;20473;-67
2022/09/14 05:14:56;;;;;;;5.90;4.50;;;19.70;93.90;;;;;;5063892;28;20484;-67
2022/09/14 05:17:23;;;;;;;6.50;4.00;;;19.70;93.80;;;;;;5063745;28;20453;-68
2022/09/14 05:19:51;;;;;;;5.60;3.90;;;19.60;93.70;;;;;;5064176;28;20537;-67
2022/09/14 05:22:21;;;;;;;5.47;4.27;;;19.60;93.80;;;;;;5063254;28;20453;-67
2022/09/14 05:24:48;;;;;;;5.67;3.63;;;19.60;93.70;;;;;;5064539;28;20441;-68
2022/09/14 05:27:14;;;;;;;6.10;3.97;;;19.60;93.70;;;;;;5065069;28;20449;-67
2022/09/14 05:29:41;;;;;;;7.70;4.10;;;19.60;93.70;;;;;;5064928;28;20941;-66
2022/09/14 05:32:08;;;;;;;5.23;4.20;;;19.50;93.70;;;;;;5064280;28;20453;-66
2022/09/14 05:34:35;;;;;;;6.30;4.10;;;19.60;93.80;;;;;;5064776;28;20489;-66
2022/09/14 05:37:03;;;;;;;6.70;4.60;;;19.50;93.80;;;;;;5065536;28;20457;-66
2022/09/14 05:39:30;;;;;;;4.00;3.43;;;19.50;93.80;;;;;;5064505;28;20453;-66
2022/09/14 05:41:57;;;;;;;5.53;3.90;;;19.50;93.80;;;;;;5064587;28;20457;-67
2022/09/14 05:44:23;;;;;;;4.67;4.20;;;19.50;93.80;;;;;;5062967;28;20481;-67
2022/09/14 05:46:50;;;;;;;4.63;3.70;;;19.50;93.90;;;;;;5064936;28;20449;-67
2022/09/14 05:49:17;;;;;;;7.37;4.57;;;19.50;93.90;;;;;;5063054;28;20464;-66
2022/09/14 05:51:43;;;;;;;7.17;4.03;;;19.40;93.90;;;;;;5064043;28;20453;-67
2022/09/14 05:54:12;;;;;;;5.50;3.83;;;19.40;93.90;;;;;;5064285;28;20489;-66
2022/09/14 05:56:38;;;;;;;5.87;4.00;;;19.40;93.80;;;;;;5064401;28;20458;-66
2022/09/14 05:59:05;;;;;;;7.47;4.33;;;19.40;93.80;;;;;;5064033;28;20450;-66
2022/09/14 06:01:32;;;;;;;5.43;4.10;;;19.40;93.80;;;;;;5064287;28;20446;-66
2022/09/14 06:04:02;;;;;;;5.63;3.47;;;19.40;93.90;;;;;;5064800;28;20809;-66
2022/09/14 06:06:30;;;;;;;7.23;3.97;;;19.40;94.00;;;;;;5065614;28;20438;-67
2022/09/14 06:08:57;;;;;;;5.87;3.53;;;19.40;94.00;;;;;;5063979;28;20454;-66
2022/09/14 06:11:27;;;;;;;8.10;3.70;;;19.30;93.90;;;;;;5066022;28;20452;-66
2022/09/14 06:13:54;;;;;;;4.67;3.43;;;19.40;94.00;;;;;;5064432;28;20505;-66
2022/09/14 06:16:22;;;;;;;6.00;4.00;;;19.30;93.90;;;;;;5065969;28;20509;-65
2022/09/14 06:18:50;;;;;;;6.30;2.67;;;19.30;93.90;;;;;;5066065;28;20461;-65
2022/09/14 06:21:19;;;;;;;4.20;2.80;;;19.30;93.90;;;;;;5065402;28;20450;-65
2022/09/14 06:23:47;;;;;;;6.07;3.67;;;19.30;93.90;;;;;;5064777;28;20468;-65
2022/09/14 06:26:14;;;;;;;4.20;3.23;;;19.30;93.80;;;;;;5063640;28;20433;-66
2022/09/14 06:28:42;;;;;;;4.90;3.97;;;19.30;93.80;;;;;;5063610;28;20458;-66
2022/09/14 06:31:12;;;;;;;4.40;3.80;;;19.30;93.90;;;;;;5063292;28;20450;-66
2022/09/14 06:33:42;;;;;;;5.37;3.00;;;19.30;94.00;;;;;;5062092;28;20500;-66
2022/09/14 06:36:11;;;;;;;6.17;3.23;;;19.30;94.00;;;;;;5064371;28;20434;-66
2022/09/14 06:38:38;;;;;;;3.27;2.50;;;19.30;94.00;;;;;;5073488;28;20468;-64
2022/09/14 06:41:07;;;;;;;5.17;2.80;;;19.30;94.10;;;;;;5075600;28;20430;-65
2022/09/14 06:43:36;;;;;;;5.57;2.33;;;19.30;94.20;;;;;;5064853;28;20461;-65
2022/09/14 06:46:06;;;;;;;5.87;2.53;;;19.30;94.20;;;;;;5064323;28;20442;-65
2022/09/14 06:48:36;;;;;;;2.50;2.03;;;19.30;94.20;;;;;;5064370;28;20444;-65
2022/09/14 06:51:12;;;;;;;2.83;1.80;;;19.30;94.10;;;;;;5064219;28;20449;-66
2022/09/14 06:53:39;;;;;;;4.83;3.00;;;19.30;94.10;;;;;;5063597;28;20496;-66
2022/09/14 06:56:05;;;;;;;2.20;1.87;;;19.30;94.10;;;;;;5063189;28;20455;-66
2022/09/14 06:58:33;;;;;;;4.13;2.50;;;19.30;94.00;;;;;;5063292;28;20461;-66
2022/09/14 07:01:02;;;;;;;5.33;2.53;;;19.30;94.00;;;;;;5063838;28;20449;-66
2022/09/14 07:03:31;;;;;;;2.43;1.50;;;19.30;94.10;;;;;;5067449;28;20472;-66
2022/09/14 07:06:02;;;;;;;3.33;2.20;;;19.30;94.00;;;;;;5067060;28;20948;-67
2022/09/14 07:08:29;;;;;;;5.47;2.30;;;19.30;93.90;;;;;;5066160;28;20434;-66
2022/09/14 07:10:57;;;;;;;5.83;1.87;;;19.40;93.90;;;;;;5066901;28;20819;-66
2022/09/14 07:13:24;;;;;;;4.83;2.50;;;19.40;93.70;;;;;;5065215;28;20826;-66
2022/09/14 07:15:51;;;;;;;3.27;1.73;;;19.40;93.70;;;;;;5066038;28;20449;-66
2022/09/14 07:18:18;;;;;;;2.83;2.00;;;19.40;93.70;;;;;;5066684;28;20520;-66
2022/09/14 07:20:46;;;;;;;3.47;2.20;;;19.50;93.70;;;;;;5066643;28;20430;-66
2022/09/14 07:23:13;;;;;;;4.17;2.10;;;19.40;93.60;;;;;;5066823;28;20838;-67
2022/09/14 07:25:41;;;;;;;4.97;2.60;;;19.50;93.80;;;;;;5066048;28;20433;-66
2022/09/14 07:28:07;;;;;;;3.50;2.60;;;19.40;93.70;;;;;;5065606;28;20941;-66
2022/09/14 07:30:36;;;;;;;5.00;2.07;;;19.50;93.70;;;;;;5066094;28;20462;-66
2022/09/14 07:33:03;;;;;;;2.17;1.97;;;19.50;93.70;;;;;;5066575;28;20469;-67
2022/09/14 07:35:30;;;;;;;2.40;1.70;;;19.50;93.70;;;;;;5064778;28;20988;-66
2022/09/14 07:37:58;;;;;;;8.00;2.90;;;19.50;93.70;;;;;;5066565;28;20457;-66
2022/09/14 07:40:25;;;;;;;3.30;2.67;;;19.50;93.70;;;;;;5065841;28;20449;-66
2022/09/14 07:42:53;;;;;;;3.30;1.70;;;19.50;93.60;;;;;;5065548;28;20472;-67
2022/09/14 07:45:19;;;;;;;3.10;1.70;;;19.40;93.60;;;;;;5066553;28;20437;-67
2022/09/14 07:47:46;;;;;;;3.33;2.50;;;19.40;93.70;;;;;;5065753;28;20446;-66
2022/09/14 07:50:13;;;;;;;4.60;2.20;;;19.40;93.80;;;;;;5065686;28;20503;-68
2022/09/14 07:52:40;;;;;;;5.10;2.70;;;19.40;93.80;;;;;;5066118;28;20489;-67
2022/09/14 07:55:11;;;;;;;4.17;2.63;;;19.30;93.80;;;;;;5066125;28;20478;-66
2022/09/14 07:57:38;;;;;;;3.03;2.00;;;19.40;93.90;;;;;;5066651;28;20438;-68
2022/09/14 08:00:07;;;;;;;5.53;2.50;;;19.30;94.00;;;;;;5066225;28;20442;-67
2022/09/14 08:02:34;;;;;;;2.80;2.00;;;19.40;94.00;;;;;;5066283;28;20476;-68
2022/09/14 08:05:01;;;;;;;4.93;2.70;;;19.40;94.00;;;;;;5066499;28;20507;-68
2022/09/14 08:07:27;;;;;;;3.97;2.50;;;19.30;94.00;;;;;;5066431;28;20453;-68
2022/09/14 08:09:55;;;;;;;5.83;2.43;;;19.40;93.90;;;;;;5065884;28;20468;-67
2022/09/14 08:12:23;;;;;;;4.40;2.67;;;19.40;93.90;;;;;;5065634;28;20473;-67
2022/09/14 08:14:52;;;;;;;4.50;3.33;;;19.40;93.90;;;;;;5067287;28;20514;-66
2022/09/14 08:17:20;;;;;;;7.50;3.30;;;19.40;93.90;;;;;;5068100;28;20457;-66
2022/09/14 08:19:47;;;;;;;5.97;3.10;;;19.40;94.00;;;;;;5065993;28;20492;-67
2022/09/14 08:22:14;;;;;;;4.43;3.03;;;19.40;94.10;;;;;;5066015;28;20937;-67
2022/09/14 08:24:42;;;;;;;3.67;2.97;;;19.40;94.10;;;;;;5066123;28;20438;-67
2022/09/14 08:27:10;;;;;;;5.07;2.97;;;19.30;94.20;;;;;;5065593;28;20452;-66
2022/09/14 08:29:38;;;;;;;6.17;3.43;;;19.30;94.50;;;;;;5064391;28;20456;-66
2022/09/14 08:32:05;;;;;;;3.63;3.17;;;19.40;94.20;;;;;;5067215;28;20450;-67
2022/09/14 08:34:32;;;;;;;4.90;3.50;;;19.30;94.10;;;;;;5066455;28;21000;-67
2022/09/14 08:36:59;;;;;;;4.47;3.73;;;19.30;94.20;;;;;;5066387;28;20434;-66
2022/09/14 08:39:26;;;;;;;3.90;3.00;;;19.30;94.30;;;;;;5066028;28;20944;-66
2022/09/14 08:41:55;;;;;;;3.73;3.23;;;19.20;94.30;;;;;;5064921;28;20457;-67
2022/09/14 08:44:26;;;;;;;8.03;3.57;;;19.20;94.50;;;;;;5066545;28;20458;-66
2022/09/14 08:47:00;;;;;;;5.60;3.73;;;19.30;94.60;;;;;;5068947;28;20434;-66
2022/09/14 08:49:46;;;;;;;4.43;3.90;;;19.30;94.60;;;;;;5064830;28;20492;-66
2022/09/14 08:52:25;;;;;;;3.93;3.10;;;19.40;94.50;;;;;;5064231;28;20432;-67
2022/09/14 08:54:55;;;;;;;3.53;2.90;;;19.40;94.50;;;;;;5064343;28;20474;-66
2022/09/14 08:57:28;;;;;;;6.17;4.37;;;19.40;94.40;;;;;;5065151;28;20446;-66
2022/09/14 09:00:05;;;;;;;3.13;2.83;;;19.40;94.50;;;;;;5065683;28;20456;-66
2022/09/14 09:03:13;;;;;;;4.17;3.50;;;19.50;94.50;;;;;;5065365;28;20462;-66
2022/09/14 09:05:46;;;;;;;5.23;3.50;;;19.50;94.50;;;;;;5034474;28;20937;-66
2022/09/14 09:08:20;;;;;;;4.37;3.37;;;19.50;94.40;;;;;;5066325;28;20835;-66
2022/09/14 09:10:48;;;;;;;4.53;3.70;;;19.60;94.40;;;;;;5065495;28;20433;-67
2022/09/14 09:13:18;;;;;;;3.80;3.20;;;19.60;94.50;;;;;;5065674;28;20470;-67
2022/09/14 09:15:49;;;;;;;4.07;3.10;;;19.60;94.40;;;;;;5064777;28;20462;-67
2022/09/14 09:18:32;;;;;;;3.20;2.77;;;19.70;94.30;;;;;;5065359;28;20805;-67
2022/09/14 09:21:04;;;;;;;3.73;3.43;;;19.70;94.30;;;;;;5064750;28;20505;-68
2022/09/14 09:23:32;;;;;;;2.57;2.37;;;19.70;94.10;;;;;;5067114;28;20470;-68
2022/09/14 09:26:03;;;;;;;3.80;3.03;;;19.80;94.10;;;;;;5066945;28;20449;-68
2022/09/14 09:28:30;;;;;;;7.40;3.50;;;19.80;94.00;;;;;;5066189;28;20426;-68
2022/09/14 09:31:00;;;;;;;3.60;3.30;;;19.80;94.00;;;;;;5064282;28;20824;-68
2022/09/14 09:33:28;;;;;;;4.37;3.40;;;19.70;93.90;;;;;;5063610;28;20833;-68
2022/09/14 09:35:55;;;;;;;4.33;3.40;;;19.70;94.00;;;;;;5065061;28;20503;-68
2022/09/14 09:38:24;;;;;;;3.23;2.93;;;19.70;94.00;;;;;;5065274;28;20434;-68
2022/09/14 09:40:54;;;;;;;5.87;3.60;;;19.60;94.00;;;;;;5065700;28;20450;-67
2022/09/14 09:43:21;;;;;;;4.47;3.30;;;19.60;94.00;;;;;;5066159;28;20481;-67
2022/09/14 09:45:53;;;;;;;3.80;3.50;;;19.60;94.40;;;;;;5064144;28;20448;-68
2022/09/14 09:48:24;;;;;;;5.87;3.53;;;19.60;94.10;;;;;;5064602;28;20431;-67
2022/09/14 09:50:59;;;;;;;6.80;3.97;;;19.60;94.30;;;;;;5065421;28;20453;-67
2022/09/14 09:53:27;;;;;;;5.80;4.20;;;19.60;94.30;;;;;;5063126;28;20472;-67
2022/09/14 09:55:53;;;;;;;4.47;3.60;;;19.50;94.30;;;;;;5064143;28;20488;-67
2022/09/14 09:58:22;;;;;;;5.83;4.17;;;19.60;94.30;;;;;;5063622;28;20460;-66
2022/09/14 10:00:56;;;;;;;4.90;4.37;;;19.60;94.40;;;;;;5070390;28;20426;-66
2022/09/14 10:03:29;;;;;;;4.50;4.00;;;19.60;94.40;;;;;;5078090;28;20454;-66
2022/09/14 10:06:08;;;;;;;4.43;3.70;;;19.50;94.40;;;;;;5069680;28;20464;-66
2022/09/14 10:08:42;;;;;;;4.97;3.40;;;19.50;94.50;;;;;;5065995;28;20867;-66
2022/09/14 10:11:31;;;;;;;5.70;4.93;;;19.60;94.60;;;;;;5063753;28;20445;-66
2022/09/14 10:13:58;;;;;;;7.83;4.70;;;19.60;94.60;;;;;;5064027;28;20469;-68
2022/09/14 10:16:30;;;;;;;4.73;4.33;;;19.60;94.70;;;;;;5063968;28;20478;-67
2022/09/14 10:18:58;;;;;;;5.83;4.30;;;19.60;94.70;;;;;;5062820;28;20462;-67
2022/09/14 10:21:26;;;;;;;5.70;4.47;;;19.60;94.60;;;;;;5064786;28;20457;-68
2022/09/14 10:24:04;;;;;;;6.37;4.13;;;19.60;94.60;;;;;;5065903;28;20804;-68
2022/09/14 10:26:35;;;;;;;5.23;4.73;;;19.60;94.60;;;;;;5066000;28;20921;-67
2022/09/14 10:29:30;;;;;;;4.07;3.77;;;19.60;94.60;;;;;;5067476;28;20431;-67
2022/09/14 10:32:03;;;;;;;4.00;3.60;;;19.60;94.60;;;;;;5065668;28;20438;-67
2022/09/14 10:34:30;;;;;;;4.47;3.93;;;19.70;94.60;;;;;;5064215;28;20468;-67
2022/09/14 10:37:08;;;;;;;4.40;4.00;;;19.70;94.60;;;;;;5069060;28;20915;-67
2022/09/14 10:39:42;;;;;;;3.97;3.67;;;19.70;94.50;;;;;;5069407;28;20444;-67
2022/09/14 10:42:21;;;;;;;4.47;4.17;;;19.80;94.50;;;;;;5069341;28;20437;-67
2022/09/14 10:45:02;;;;;;;5.37;4.47;;;19.80;94.40;;;;;;5069260;28;20484;-67
2022/09/14 10:47:45;;;;;;;4.67;4.37;;;19.80;94.40;;;;;;5068869;28;20441;-67
2022/09/14 10:50:27;;;;;;;4.30;3.90;;;19.80;94.30;;;;;;5070764;28;20902;-67
2022/09/14 10:53:02;;;;;;;4.30;3.90;;;19.90;94.40;;;;;;5070475;28;20488;-67
2022/09/14 10:55:35;;;;;;;4.57;4.17;;;19.90;94.30;;;;;;5066198;28;20461;-72
2022/09/14 10:58:17;;;;;;;6.67;4.60;;;20.00;94.30;;;;;;5065433;28;20810;-67
2022/09/14 11:00:53;;;;;;;4.30;4.00;;;20.10;94.10;;;;;;5065106;28;20452;-67
2022/09/14 11:03:41;;;;;;;3.67;3.37;;;20.20;94.00;;;;;;5066378;28;20465;-68
2022/09/14 11:06:16;;;;;;;5.10;3.83;;;20.30;93.70;;;;;;5067130;28;20437;-68
2022/09/14 11:08:46;;;;;;;4.27;3.60;;;20.30;93.50;;;;;;5065675;28;20429;-67
2022/09/14 11:11:27;;;;;;;3.70;3.23;;;20.30;93.20;;;;;;5066993;28;20795;-67
2022/09/14 11:14:06;;;;;;;3.30;3.00;;;20.30;93.00;;;;;;5066029;28;20840;-67
2022/09/14 11:16:52;;;;;;;3.47;3.17;;;20.30;93.00;;;;;;5066111;28;20469;-67
2022/09/14 11:19:28;;;;;;;2.87;2.67;;;20.30;93.20;;;;;;5065917;28;20480;-67
2022/09/14 11:22:03;;;;;;;3.60;3.17;;;20.30;93.30;;;;;;5066388;28;20434;-67
2022/09/14 11:24:40;;;;;;;4.07;3.13;;;20.30;93.20;;;;;;5065628;28;20512;-67
2022/09/14 11:27:14;;;;;;;3.90;2.40;;;20.30;93.30;;;;;;5066340;28;20437;-67
2022/09/14 11:29:46;;;;;;;3.47;2.97;;;20.20;93.30;;;;;;5065966;28;20440;-67
2022/09/14 11:32:19;;;;;;;2.80;2.33;;;20.20;93.30;;;;;;5065489;28;20940;-67
2022/09/14 11:34:53;;;;;;;3.60;2.43;;;20.20;93.40;;;;;;5065956;28;20436;-67
2022/09/14 11:37:26;;;;;;;4.20;2.93;;;20.10;93.30;;;;;;5064739;28;20509;-67
2022/09/14 11:40:04;;;;;;;5.23;2.63;;;20.10;93.30;;;;;;5065095;28;20434;-68
2022/09/14 11:42:35;;;;;;;3.23;2.40;;;20.10;93.40;;;;;;5064541;28;20576;-68
2022/09/14 11:45:07;;;;;;;3.47;2.67;;;20.10;93.50;;;;;;5065144;28;20434;-68
2022/09/14 11:47:37;;;;;;;3.50;2.50;;;20.10;93.50;;;;;;5063766;28;20445;-67
2022/09/14 11:50:15;;;;;;;2.50;2.20;;;20.10;93.40;;;;;;5068888;28;20476;-68
2022/09/14 11:52:42;;;;;;;2.90;2.30;;;20.10;93.50;;;;;;5070508;28;20544;-68
2022/09/14 11:55:18;;;;;;;2.43;2.20;;;20.10;93.50;;;;;;5070177;28;20492;-68
2022/09/14 11:57:45;;;;;;;3.03;1.80;;;20.20;93.60;;;;;;5062725;28;20438;-68
2022/09/14 12:00:44;;;;;;;4.30;2.30;;;20.20;93.40;;;;;;5063323;28;20452;-68
2022/09/14 12:03:17;;;;;;;1.77;1.60;;;20.20;93.40;;;;;;5060190;28;20478;-68
2022/09/14 12:05:45;;;;;;;3.40;2.30;;;20.20;93.40;;;;;;5059659;28;20510;-68
2022/09/14 12:08:45;;;;;;;2.93;1.73;;;20.20;93.40;;;;;;5059649;28;20461;-68
2022/09/14 12:11:33;;;;;;;4.53;2.30;;;20.20;93.20;;;;;;4997672;28;20424;-68
2022/09/14 12:14:31;;;;;;;2.10;1.90;;;20.20;93.60;;;;;;4996717;28;20481;-69
2022/09/14 12:17:17;;;;;;;3.87;2.07;;;20.30;93.30;;;;;;5045966;28;20496;-69
2022/09/14 12:19:46;;;;;;;1.63;1.53;;;20.20;93.20;;;;;;5056792;28;20492;-68
2022/09/14 12:22:35;;;;;;;3.40;1.67;;;20.30;93.30;;;;;;5061690;28;20500;-68
2022/09/14 12:25:05;;;;;;;3.00;2.23;;;20.20;93.10;;;;;;5057976;28;20512;-68
2022/09/14 12:27:36;;;;;;;3.07;2.03;;;20.20;93.00;;;;;;5064165;28;20457;-68
2022/09/14 12:30:23;;;;;;;2.40;1.63;;;20.20;93.00;;;;;;5062679;28;20457;-68
2022/09/14 12:32:51;;;;;;;3.30;2.20;;;20.10;93.10;;;;;;5064286;28;20474;-68
2022/09/14 12:35:44;;;;;;;2.23;2.00;;;20.00;93.10;;;;;;5063400;28;20490;-68
2022/09/14 12:38:42;;;;;;;2.93;2.23;;;20.00;93.20;;;;;;5061742;28;20460;-68
2022/09/14 12:41:42;;;;;;;2.47;2.30;;;20.00;93.40;;;;;;5000864;28;20962;-68
2022/09/14 12:44:37;;;;;;;3.70;2.30;;;20.00;93.40;;;;;;5062821;28;20470;-68
2022/09/14 12:47:38;;;;;;;3.73;2.43;;;20.00;93.40;;;;;;5063299;28;20414;-68
2022/09/14 12:50:12;;;;;;;3.87;2.33;;;20.00;93.50;;;;;;5051089;28;20461;-68
2022/09/14 12:52:50;;;;;;;3.63;2.17;;;20.00;93.60;;;;;;5061151;28;20496;-72
2022/09/14 12:55:34;;;;;;;2.97;2.20;;;19.90;93.70;;;;;;5065035;28;20478;-71
2022/09/14 12:58:09;;;;;;;2.60;2.40;;;19.90;93.70;;;;;;5056022;28;20430;-71
2022/09/14 13:00:50;;;;;;;2.67;2.47;;;19.90;93.80;;;;;;5060627;28;20434;-70
2022/09/14 13:03:40;;;;;;;3.93;2.07;;;19.80;93.70;;;;;;5058455;28;20474;-69
2022/09/14 13:06:12;;;;;;;7.87;2.03;;;19.80;93.80;;;;;;5052798;28;20454;-68
2022/09/14 13:08:43;;;;;;;2.60;2.40;;;19.70;94.00;;;;;;5054730;28;20430;-68
2022/09/14 13:11:17;;;;;;;3.77;2.10;;;19.70;94.10;;;;;;5054544;28;20438;-68